sensor_id;sensor_type;location;lat;lon;timestamp;pressure;altitude;pressure_sealevel;temperature;humidity
59073;BME280;44859;51.934;15.554;2023-02-28T00:05:39;101228.20;;;-0.81;67.18
59073;BME280;44859;51.934;15.554;2023-02-28T00:08:10;101229.95;;;-0.81;66.71
59073;BME280;44859;51.934;15.554;2023-02-28T00:10:40;101228.42;;;-0.79;66.44
59073;BME280;44859;51.934;15.554;2023-02-28T00:13:09;101226.77;;;-0.77;66.64
59073;BME280;44859;51.934;15.554;2023-02-28T00:16:01;101229.53;;;-0.76;66.18
59073;BME280;44859;51.934;15.554;2023-02-28T00:18:43;101227.86;;;-0.73;65.90
59073;BME280;44859;51.934;15.554;2023-02-28T00:21:19;101225.38;;;-0.68;66.47
59073;BME280;44859;51.934;15.554;2023-02-28T00:23:49;101227.27;;;-0.68;66.51
59073;BME280;44859;51.934;15.554;2023-02-28T00:26:31;101230.31;;;-0.71;65.97
59073;BME280;44859;51.934;15.554;2023-02-28T00:29:04;101228.59;;;-0.71;65.79
59073;BME280;44859;51.934;15.554;2023-02-28T00:31:34;101232.05;;;-0.70;65.70
59073;BME280;44859;51.934;15.554;2023-02-28T00:34:05;101234.40;;;-0.74;66.65
59073;BME280;44859;51.934;15.554;2023-02-28T00:36:35;101237.54;;;-0.80;67.58
59073;BME280;44859;51.934;15.554;2023-02-28T00:39:05;101238.61;;;-0.87;68.32
59073;BME280;44859;51.934;15.554;2023-02-28T00:41:46;101237.42;;;-0.94;68.99
59073;BME280;44859;51.934;15.554;2023-02-28T00:44:22;101235.06;;;-0.99;68.96
59073;BME280;44859;51.934;15.554;2023-02-28T00:46:49;101236.72;;;-1.02;69.14
59073;BME280;44859;51.934;15.554;2023-02-28T00:49:35;101235.64;;;-1.05;69.27
59073;BME280;44859;51.934;15.554;2023-02-28T00:52:12;101236.24;;;-1.09;69.59
59073;BME280;44859;51.934;15.554;2023-02-28T00:54:43;101239.23;;;-1.14;69.40
59073;BME280;44859;51.934;15.554;2023-02-28T00:57:11;101232.95;;;-1.18;69.72
59073;BME280;44859;51.934;15.554;2023-02-28T01:00:05;101234.11;;;-1.19;69.98
59073;BME280;44859;51.934;15.554;2023-02-28T01:02:54;101231.75;;;-1.18;70.01
59073;BME280;44859;51.934;15.554;2023-02-28T01:05:24;101233.05;;;-1.21;69.97
59073;BME280;44859;51.934;15.554;2023-02-28T01:08:03;101236.13;;;-1.22;70.33
59073;BME280;44859;51.934;15.554;2023-02-28T01:11:06;101232.69;;;-1.22;70.43
59073;BME280;44859;51.934;15.554;2023-02-28T01:13:34;101234.91;;;-1.22;71.18
59073;BME280;44859;51.934;15.554;2023-02-28T01:16:13;101233.98;;;-1.26;71.38
59073;BME280;44859;51.934;15.554;2023-02-28T01:18:47;101233.55;;;-1.30;71.86
59073;BME280;44859;51.934;15.554;2023-02-28T01:21:17;101234.67;;;-1.33;72.04
59073;BME280;44859;51.934;15.554;2023-02-28T01:23:49;101232.38;;;-1.35;72.20
59073;BME280;44859;51.934;15.554;2023-02-28T01:26:30;101231.48;;;-1.37;72.58
59073;BME280;44859;51.934;15.554;2023-02-28T01:29:25;101231.10;;;-1.38;72.49
59073;BME280;44859;51.934;15.554;2023-02-28T01:31:53;101232.81;;;-1.38;72.59
59073;BME280;44859;51.934;15.554;2023-02-28T01:34:23;101231.42;;;-1.39;72.69
59073;BME280;44859;51.934;15.554;2023-02-28T01:36:56;101228.36;;;-1.38;73.02
59073;BME280;44859;51.934;15.554;2023-02-28T01:39:26;101228.17;;;-1.38;73.24
59073;BME280;44859;51.934;15.554;2023-02-28T01:42:21;101227.80;;;-1.39;73.53
59073;BME280;44859;51.934;15.554;2023-02-28T01:47:57;101225.05;;;-1.39;73.40
59073;BME280;44859;51.934;15.554;2023-02-28T01:50:39;101220.23;;;-1.39;73.35
59073;BME280;44859;51.934;15.554;2023-02-28T01:53:23;101218.91;;;-1.36;73.46
59073;BME280;44859;51.934;15.554;2023-02-28T01:56:06;101217.23;;;-1.35;73.58
59073;BME280;44859;51.934;15.554;2023-02-28T01:59:00;101219.42;;;-1.29;73.17
59073;BME280;44859;51.934;15.554;2023-02-28T02:01:31;101213.29;;;-1.26;72.79
59073;BME280;44859;51.934;15.554;2023-02-28T02:04:11;101209.90;;;-1.23;72.46
59073;BME280;44859;51.934;15.554;2023-02-28T02:06:43;101210.61;;;-1.22;72.75
59073;BME280;44859;51.934;15.554;2023-02-28T02:09:15;101210.63;;;-1.22;72.46
59073;BME280;44859;51.934;15.554;2023-02-28T02:11:47;101208.35;;;-1.23;72.55
59073;BME280;44859;51.934;15.554;2023-02-28T02:17:52;101204.16;;;-1.26;72.50
59073;BME280;44859;51.934;15.554;2023-02-28T02:35:29;101191.42;;;-1.32;71.99
59073;BME280;44859;51.934;15.554;2023-02-28T02:46:37;101196.38;;;-1.50;71.74
59073;BME280;44859;51.934;15.554;2023-02-28T02:49:30;101197.56;;;-1.51;71.79
59073;BME280;44859;51.934;15.554;2023-02-28T02:52:12;101198.63;;;-1.50;71.76
59073;BME280;44859;51.934;15.554;2023-02-28T02:54:44;101198.41;;;-1.51;71.63
59073;BME280;44859;51.934;15.554;2023-02-28T02:57:32;101200.19;;;-1.56;71.98
59073;BME280;44859;51.934;15.554;2023-02-28T03:00:11;101198.77;;;-1.58;71.71
59073;BME280;44859;51.934;15.554;2023-02-28T03:02:47;101199.27;;;-1.59;71.50
59073;BME280;44859;51.934;15.554;2023-02-28T03:05:23;101200.63;;;-1.60;71.88
59073;BME280;44859;51.934;15.554;2023-02-28T03:07:52;101200.27;;;-1.61;72.38
59073;BME280;44859;51.934;15.554;2023-02-28T03:10:47;101202.28;;;-1.63;72.31
59073;BME280;44859;51.934;15.554;2023-02-28T03:34:39;101203.64;;;-1.86;72.85
59073;BME280;44859;51.934;15.554;2023-02-28T03:37:50;101205.25;;;-1.90;72.95
59073;BME280;44859;51.934;15.554;2023-02-28T03:40:27;101208.73;;;-1.94;73.35
59073;BME280;44859;51.934;15.554;2023-02-28T03:43:19;101212.13;;;-1.97;73.45
59073;BME280;44859;51.934;15.554;2023-02-28T03:45:55;101209.95;;;-2.01;73.25
59073;BME280;44859;51.934;15.554;2023-02-28T03:52:34;101216.54;;;-2.13;73.96
59073;BME280;44859;51.934;15.554;2023-02-28T03:55:08;101220.80;;;-2.14;74.05
59073;BME280;44859;51.934;15.554;2023-02-28T03:58:31;101227.32;;;-2.15;73.98
59073;BME280;44859;51.934;15.554;2023-02-28T04:01:50;101232.13;;;-2.16;74.22
59073;BME280;44859;51.934;15.554;2023-02-28T04:04:38;101229.12;;;-2.20;74.16
59073;BME280;44859;51.934;15.554;2023-02-28T04:08:05;101228.86;;;-2.23;73.90
59073;BME280;44859;51.934;15.554;2023-02-28T04:11:04;101235.54;;;-2.24;74.05
59073;BME280;44859;51.934;15.554;2023-02-28T04:13:39;101231.23;;;-2.24;74.11
59073;BME280;44859;51.934;15.554;2023-02-28T04:16:16;101231.39;;;-2.25;74.18
59073;BME280;44859;51.934;15.554;2023-02-28T04:19:34;101234.13;;;-2.25;74.50
59073;BME280;44859;51.934;15.554;2023-02-28T04:22:44;101237.58;;;-2.25;74.78
59073;BME280;44859;51.934;15.554;2023-02-28T04:25:13;101240.52;;;-2.24;74.77
59073;BME280;44859;51.934;15.554;2023-02-28T04:27:49;101240.71;;;-2.24;74.85
59073;BME280;44859;51.934;15.554;2023-02-28T04:30:17;101240.73;;;-2.24;74.98
59073;BME280;44859;51.934;15.554;2023-02-28T04:32:57;101237.12;;;-2.23;75.30
59073;BME280;44859;51.934;15.554;2023-02-28T04:36:07;101236.94;;;-2.23;75.45
59073;BME280;44859;51.934;15.554;2023-02-28T04:38:40;101236.42;;;-2.23;75.22
59073;BME280;44859;51.934;15.554;2023-02-28T04:41:45;101237.42;;;-2.24;75.71
59073;BME280;44859;51.934;15.554;2023-02-28T04:44:20;101240.23;;;-2.28;75.32
59073;BME280;44859;51.934;15.554;2023-02-28T04:47:07;101237.75;;;-2.31;75.73
59073;BME280;44859;51.934;15.554;2023-02-28T04:49:37;101242.06;;;-2.31;75.80
59073;BME280;44859;51.934;15.554;2023-02-28T04:58:53;101242.77;;;-2.43;76.42
59073;BME280;44859;51.934;15.554;2023-02-28T05:01:45;101249.52;;;-2.47;76.17
59073;BME280;44859;51.934;15.554;2023-02-28T05:33:21;101271.71;;;-2.90;77.84
59073;BME280;44859;51.934;15.554;2023-02-28T05:39:01;101275.54;;;-2.94;78.26
59073;BME280;44859;51.934;15.554;2023-02-28T05:42:23;101278.35;;;-2.97;78.05
59073;BME280;44859;51.934;15.554;2023-02-28T05:45:13;101278.77;;;-3.01;78.52
59073;BME280;44859;51.934;15.554;2023-02-28T05:47:45;101279.52;;;-3.04;78.68
59073;BME280;44859;51.934;15.554;2023-02-28T05:50:13;101288.23;;;-3.06;78.93
59073;BME280;44859;51.934;15.554;2023-02-28T05:52:55;101289.21;;;-3.07;78.57
59073;BME280;44859;51.934;15.554;2023-02-28T05:55:39;101291.40;;;-3.09;78.89
59073;BME280;44859;51.934;15.554;2023-02-28T05:58:14;101294.55;;;-3.13;79.21
59073;BME280;44859;51.934;15.554;2023-02-28T06:00:59;101294.96;;;-3.16;79.22
59073;BME280;44859;51.934;15.554;2023-02-28T06:03:33;101295.42;;;-3.18;79.46
59073;BME280;44859;51.934;15.554;2023-02-28T06:09:33;101292.84;;;-3.18;79.64
59073;BME280;44859;51.934;15.554;2023-02-28T06:12:13;101298.77;;;-3.15;79.89
59073;BME280;44859;51.934;15.554;2023-02-28T06:14:53;101299.92;;;-3.11;80.14
59073;BME280;44859;51.934;15.554;2023-02-28T06:17:39;101300.55;;;-3.08;80.12
59073;BME280;44859;51.934;15.554;2023-02-28T06:20:12;101301.08;;;-3.07;80.49
59073;BME280;44859;51.934;15.554;2023-02-28T06:23:13;101299.88;;;-3.08;80.10
59073;BME280;44859;51.934;15.554;2023-02-28T06:25:56;101300.71;;;-3.09;80.45
59073;BME280;44859;51.934;15.554;2023-02-28T06:28:43;101305.65;;;-3.10;80.29
59073;BME280;44859;51.934;15.554;2023-02-28T06:31:32;101306.64;;;-3.11;80.41
59073;BME280;44859;51.934;15.554;2023-02-28T06:34:16;101306.79;;;-3.12;80.64
59073;BME280;44859;51.934;15.554;2023-02-28T06:36:53;101308.34;;;-3.12;80.68
59073;BME280;44859;51.934;15.554;2023-02-28T06:39:45;101307.85;;;-3.11;81.12
59073;BME280;44859;51.934;15.554;2023-02-28T06:42:18;101314.41;;;-3.10;81.22
59073;BME280;44859;51.934;15.554;2023-02-28T06:44:51;101313.81;;;-3.07;81.30
59073;BME280;44859;51.934;15.554;2023-02-28T06:47:20;101316.69;;;-3.03;81.31
59073;BME280;44859;51.934;15.554;2023-02-28T06:49:50;101318.17;;;-2.99;81.41
59073;BME280;44859;51.934;15.554;2023-02-28T06:52:20;101319.84;;;-2.96;81.68
59073;BME280;44859;51.934;15.554;2023-02-28T06:54:50;101322.20;;;-2.92;81.45
59073;BME280;44859;51.934;15.554;2023-02-28T06:57:34;101323.79;;;-2.84;81.78
59073;BME280;44859;51.934;15.554;2023-02-28T07:00:08;101321.92;;;-2.78;81.74
59073;BME280;44859;51.934;15.554;2023-02-28T07:02:39;101319.71;;;-2.71;81.65
59073;BME280;44859;51.934;15.554;2023-02-28T07:05:07;101321.44;;;-2.65;81.66
59073;BME280;44859;51.934;15.554;2023-02-28T07:07:34;101321.63;;;-2.59;81.81
59073;BME280;44859;51.934;15.554;2023-02-28T07:10:03;101322.21;;;-2.51;81.99
59073;BME280;44859;51.934;15.554;2023-02-28T07:12:30;101324.04;;;-2.40;81.76
59073;BME280;44859;51.934;15.554;2023-02-28T07:15:00;101324.85;;;-2.30;81.75
59073;BME280;44859;51.934;15.554;2023-02-28T07:17:28;101324.96;;;-2.14;81.89
59073;BME280;44859;51.934;15.554;2023-02-28T07:19:58;101325.38;;;-1.92;81.62
59073;BME280;44859;51.934;15.554;2023-02-28T07:22:25;101322.27;;;-1.66;81.42
59073;BME280;44859;51.934;15.554;2023-02-28T07:24:52;101318.27;;;-1.39;81.04
59073;BME280;44859;51.934;15.554;2023-02-28T07:27:30;101319.30;;;-1.19;80.97
59073;BME280;44859;51.934;15.554;2023-02-28T07:30:00;101321.92;;;-1.01;80.15
59073;BME280;44859;51.934;15.554;2023-02-28T07:32:34;101323.80;;;-0.87;79.74
59073;BME280;44859;51.934;15.554;2023-02-28T07:35:05;101324.33;;;-0.80;79.41
59073;BME280;44859;51.934;15.554;2023-02-28T07:37:35;101329.03;;;-0.62;79.18
59073;BME280;44859;51.934;15.554;2023-02-28T07:40:14;101325.47;;;-0.50;78.51
59073;BME280;44859;51.934;15.554;2023-02-28T07:42:57;101334.85;;;-0.39;78.00
59073;BME280;44859;51.934;15.554;2023-02-28T07:45:30;101331.44;;;-0.20;77.80
59073;BME280;44859;51.934;15.554;2023-02-28T07:48:02;101332.75;;;-0.07;77.36
59073;BME280;44859;51.934;15.554;2023-02-28T07:50:32;101332.63;;;0.06;76.95
59073;BME280;44859;51.934;15.554;2023-02-28T07:53:05;101330.08;;;0.26;76.16
59073;BME280;44859;51.934;15.554;2023-02-28T07:55:38;101330.79;;;0.38;75.69
59073;BME280;44859;51.934;15.554;2023-02-28T07:58:05;101330.39;;;0.44;75.42
59073;BME280;44859;51.934;15.554;2023-02-28T08:00:38;101331.31;;;0.47;75.11
59073;BME280;44859;51.934;15.554;2023-02-28T08:03:13;101325.86;;;0.74;74.39
59073;BME280;44859;51.934;15.554;2023-02-28T08:05:45;101323.31;;;0.88;73.82
59073;BME280;44859;51.934;15.554;2023-02-28T08:08:15;101325.06;;;0.99;73.30
59073;BME280;44859;51.934;15.554;2023-02-28T08:10:44;101323.49;;;1.12;72.77
59073;BME280;44859;51.934;15.554;2023-02-28T08:13:21;101324.10;;;1.30;71.82
59073;BME280;44859;51.934;15.554;2023-02-28T08:16:04;101322.23;;;1.45;71.07
59073;BME280;44859;51.934;15.554;2023-02-28T08:18:38;101321.35;;;1.58;69.90
59073;BME280;44859;51.934;15.554;2023-02-28T08:21:19;101322.29;;;1.50;69.01
59073;BME280;44859;51.934;15.554;2023-02-28T08:23:56;101325.31;;;1.42;68.37
59073;BME280;44859;51.934;15.554;2023-02-28T08:26:57;101325.58;;;1.12;66.74
59073;BME280;44859;51.934;15.554;2023-02-28T08:29:54;101324.42;;;0.92;66.97
59073;BME280;44859;51.934;15.554;2023-02-28T08:32:31;101326.84;;;0.93;67.02
59073;BME280;44859;51.934;15.554;2023-02-28T08:35:02;101328.41;;;0.81;66.41
59073;BME280;44859;51.934;15.554;2023-02-28T08:37:41;101326.27;;;0.77;66.88
59073;BME280;44859;51.934;15.554;2023-02-28T08:40:18;101326.80;;;0.78;66.12
59073;BME280;44859;51.934;15.554;2023-02-28T08:42:49;101324.27;;;0.72;64.38
59073;BME280;44859;51.934;15.554;2023-02-28T08:45:22;101321.88;;;0.62;64.79
59073;BME280;44859;51.934;15.554;2023-02-28T08:47:55;101321.02;;;0.63;64.56
59073;BME280;44859;51.934;15.554;2023-02-28T08:50:27;101325.67;;;0.62;64.22
59073;BME280;44859;51.934;15.554;2023-02-28T08:53:06;101327.45;;;0.65;62.72
59073;BME280;44859;51.934;15.554;2023-02-28T08:55:36;101326.30;;;0.58;60.00
59073;BME280;44859;51.934;15.554;2023-02-28T08:58:04;101332.89;;;0.49;59.85
59073;BME280;44859;51.934;15.554;2023-02-28T09:00:38;101337.56;;;0.49;60.71
59073;BME280;44859;51.934;15.554;2023-02-28T09:03:26;101336.30;;;0.57;60.73
59073;BME280;44859;51.934;15.554;2023-02-28T09:06:23;101340.20;;;0.63;60.49
59073;BME280;44859;51.934;15.554;2023-02-28T09:08:55;101337.55;;;0.59;59.87
59073;BME280;44859;51.934;15.554;2023-02-28T09:11:32;101338.53;;;0.56;60.29
59073;BME280;44859;51.934;15.554;2023-02-28T09:14:22;101342.05;;;0.60;60.22
59073;BME280;44859;51.934;15.554;2023-02-28T09:16:52;101339.82;;;0.60;60.20
59073;BME280;44859;51.934;15.554;2023-02-28T09:19:22;101341.80;;;0.64;59.64
59073;BME280;44859;51.934;15.554;2023-02-28T09:21:49;101342.34;;;0.66;59.45
59073;BME280;44859;51.934;15.554;2023-02-28T09:24:22;101340.09;;;0.66;60.22
59073;BME280;44859;51.934;15.554;2023-02-28T09:26:54;101337.86;;;0.67;60.65
59073;BME280;44859;51.934;15.554;2023-02-28T09:29:32;101335.42;;;0.66;60.76
59073;BME280;44859;51.934;15.554;2023-02-28T09:32:10;101334.48;;;0.62;60.46
59073;BME280;44859;51.934;15.554;2023-02-28T09:34:39;101336.30;;;0.57;60.26
59073;BME280;44859;51.934;15.554;2023-02-28T09:37:07;101335.29;;;0.58;60.53
59073;BME280;44859;51.934;15.554;2023-02-28T09:39:49;101334.04;;;0.66;60.69
59073;BME280;44859;51.934;15.554;2023-02-28T09:42:30;101329.73;;;0.77;60.86
59073;BME280;44859;51.934;15.554;2023-02-28T09:45:02;101327.01;;;0.92;60.78
59073;BME280;44859;51.934;15.554;2023-02-28T09:47:43;101329.22;;;1.12;60.78
59073;BME280;44859;51.934;15.554;2023-02-28T09:52:57;101334.65;;;1.29;60.58
59073;BME280;44859;51.934;15.554;2023-02-28T10:01:18;101334.83;;;0.95;59.46
59073;BME280;44859;51.934;15.554;2023-02-28T10:04:08;101336.05;;;0.94;59.15
59073;BME280;44859;51.934;15.554;2023-02-28T10:06:46;101331.31;;;1.02;59.58
59073;BME280;44859;51.934;15.554;2023-02-28T10:09:45;101331.13;;;1.13;59.52
59073;BME280;44859;51.934;15.554;2023-02-28T10:12:20;101329.38;;;1.36;59.31
59073;BME280;44859;51.934;15.554;2023-02-28T10:14:51;101330.31;;;1.54;58.65
59073;BME280;44859;51.934;15.554;2023-02-28T10:17:23;101335.80;;;1.51;58.40
59073;BME280;44859;51.934;15.554;2023-02-28T10:20:06;101331.08;;;1.33;59.25
59073;BME280;44859;51.934;15.554;2023-02-28T10:22:58;101331.07;;;1.21;59.25
59073;BME280;44859;51.934;15.554;2023-02-28T10:25:32;101331.89;;;1.17;58.65
59073;BME280;44859;51.934;15.554;2023-02-28T10:28:13;101332.38;;;1.16;58.99
59073;BME280;44859;51.934;15.554;2023-02-28T10:30:50;101335.57;;;1.10;59.49
59073;BME280;44859;51.934;15.554;2023-02-28T10:33:29;101335.89;;;0.95;59.98
59073;BME280;44859;51.934;15.554;2023-02-28T10:36:08;101327.13;;;1.00;60.47
59073;BME280;44859;51.934;15.554;2023-02-28T10:38:58;101332.77;;;1.06;60.40
59073;BME280;44859;51.934;15.554;2023-02-28T10:41:31;101329.58;;;1.01;60.65
59073;BME280;44859;51.934;15.554;2023-02-28T10:47:04;101324.81;;;1.30;60.74
59073;BME280;44859;51.934;15.554;2023-02-28T10:49:32;101326.45;;;1.38;60.74
59073;BME280;44859;51.934;15.554;2023-02-28T10:52:21;101324.92;;;1.53;60.66
59073;BME280;44859;51.934;15.554;2023-02-28T10:58:22;101324.36;;;1.64;60.14
59073;BME280;44859;51.934;15.554;2023-02-28T11:00:55;101323.55;;;1.54;59.41
59073;BME280;44859;51.934;15.554;2023-02-28T11:09:46;101316.15;;;2.02;58.93
59073;BME280;44859;51.934;15.554;2023-02-28T11:12:39;101317.02;;;1.71;58.46
59073;BME280;44859;51.934;15.554;2023-02-28T11:15:33;101320.02;;;1.63;58.98
59073;BME280;44859;51.934;15.554;2023-02-28T11:20:55;101313.80;;;1.92;58.85
59073;BME280;44859;51.934;15.554;2023-02-28T11:23:26;101309.48;;;2.28;59.07
59073;BME280;44859;51.934;15.554;2023-02-28T11:26:10;101309.36;;;2.55;57.32
59073;BME280;44859;51.934;15.554;2023-02-28T11:28:53;101304.58;;;2.41;57.68
59073;BME280;44859;51.934;15.554;2023-02-28T11:31:40;101307.58;;;2.29;57.13
59073;BME280;44859;51.934;15.554;2023-02-28T11:34:24;101308.32;;;2.16;57.88
59073;BME280;44859;51.934;15.554;2023-02-28T11:40:05;101295.36;;;2.40;58.61
59073;BME280;44859;51.934;15.554;2023-02-28T11:46:26;101284.49;;;2.68;58.13
59073;BME280;44859;51.934;15.554;2023-02-28T11:59:38;101279.96;;;2.42;56.66
59073;BME280;44859;51.934;15.554;2023-02-28T12:05:48;101267.09;;;3.13;57.08
59073;BME280;44859;51.934;15.554;2023-02-28T12:11:37;101260.28;;;3.42;55.98
59073;BME280;44859;51.934;15.554;2023-02-28T12:24:01;101254.13;;;3.75;54.77
59073;BME280;44859;51.934;15.554;2023-02-28T12:27:43;101247.94;;;4.01;54.96
59073;BME280;44859;51.934;15.554;2023-02-28T12:30:12;101244.48;;;4.28;54.16
59073;BME280;44859;51.934;15.554;2023-02-28T12:33:11;101232.13;;;4.45;53.54
59073;BME280;44859;51.934;15.554;2023-02-28T12:36:26;101234.90;;;4.06;52.56
59073;BME280;44859;51.934;15.554;2023-02-28T12:42:44;101230.20;;;3.94;52.66
59073;BME280;44859;51.934;15.554;2023-02-28T12:45:25;101233.60;;;3.63;53.17
59073;BME280;44859;51.934;15.554;2023-02-28T12:48:53;101224.09;;;3.82;52.79
59073;BME280;44859;51.934;15.554;2023-02-28T13:00:16;101210.86;;;4.73;51.88
59073;BME280;44859;51.934;15.554;2023-02-28T13:10:13;101207.17;;;4.86;51.25
59073;BME280;44859;51.934;15.554;2023-02-28T13:12:52;101199.64;;;5.09;51.11
59073;BME280;44859;51.934;15.554;2023-02-28T13:22:56;101203.68;;;4.91;51.03
59073;BME280;44859;51.934;15.554;2023-02-28T13:37:47;101198.88;;;4.70;50.05
59073;BME280;44859;51.934;15.554;2023-02-28T13:40:29;101202.84;;;4.78;50.16
59073;BME280;44859;51.934;15.554;2023-02-28T13:43:18;101200.88;;;4.97;49.92
59073;BME280;44859;51.934;15.554;2023-02-28T13:46:11;101199.89;;;4.80;49.34
59073;BME280;44859;51.934;15.554;2023-02-28T13:48:39;101194.48;;;4.80;48.97
59073;BME280;44859;51.934;15.554;2023-02-28T14:01:10;101186.52;;;4.72;48.39
59073;BME280;44859;51.934;15.554;2023-02-28T14:07:23;101182.96;;;5.35;47.95
59073;BME280;44859;51.934;15.554;2023-02-28T14:10:15;101181.96;;;5.27;47.26
59073;BME280;44859;51.934;15.554;2023-02-28T14:13:42;101181.80;;;5.27;47.67
59073;BME280;44859;51.934;15.554;2023-02-28T14:16:26;101178.11;;;5.30;48.06
59073;BME280;44859;51.934;15.554;2023-02-28T14:19:10;101172.04;;;5.57;47.32
59073;BME280;44859;51.934;15.554;2023-02-28T14:36:42;101167.13;;;4.89;47.58
59073;BME280;44859;51.934;15.554;2023-02-28T14:39:31;101158.16;;;5.74;47.28
59073;BME280;44859;51.934;15.554;2023-02-28T14:42:58;101159.50;;;5.83;45.13
59073;BME280;44859;51.934;15.554;2023-02-28T14:45:59;101163.95;;;5.39;46.25
59073;BME280;44859;51.934;15.554;2023-02-28T14:48:41;101160.33;;;5.63;45.72
59073;BME280;44859;51.934;15.554;2023-02-28T14:51:22;101157.09;;;5.79;45.95
59073;BME280;44859;51.934;15.554;2023-02-28T14:54:11;101153.52;;;5.65;45.72
59073;BME280;44859;51.934;15.554;2023-02-28T14:57:00;101150.51;;;5.45;46.43
59073;BME280;44859;51.934;15.554;2023-02-28T14:59:56;101157.17;;;5.67;46.06
59073;BME280;44859;51.934;15.554;2023-02-28T15:02:53;101163.11;;;5.32;45.72
59073;BME280;44859;51.934;15.554;2023-02-28T15:05:35;101168.63;;;5.45;46.32
59073;BME280;44859;51.934;15.554;2023-02-28T15:09:14;101165.77;;;5.56;46.16
59073;BME280;44859;51.934;15.554;2023-02-28T15:12:39;101158.55;;;5.93;45.67
59073;BME280;44859;51.934;15.554;2023-02-28T15:19:29;101159.34;;;5.55;45.39
59073;BME280;44859;51.934;15.554;2023-02-28T15:22:35;101159.73;;;5.15;45.39
59073;BME280;44859;51.934;15.554;2023-02-28T15:28:44;101159.12;;;4.93;46.09
59073;BME280;44859;51.934;15.554;2023-02-28T15:31:33;101156.13;;;5.00;46.24
59073;BME280;44859;51.934;15.554;2023-02-28T15:34:34;101152.45;;;5.06;46.35
59073;BME280;44859;51.934;15.554;2023-02-28T15:45:33;101144.61;;;3.39;48.27
59073;BME280;44859;51.934;15.554;2023-02-28T15:48:32;101148.67;;;3.04;48.78
59073;BME280;44859;51.934;15.554;2023-02-28T15:54:17;101147.24;;;2.59;49.82
59073;BME280;44859;51.934;15.554;2023-02-28T15:56:53;101147.83;;;2.42;50.49
59073;BME280;44859;51.934;15.554;2023-02-28T15:59:27;101150.52;;;2.29;50.72
59073;BME280;44859;51.934;15.554;2023-02-28T16:07:38;101156.79;;;2.10;51.81
59073;BME280;44859;51.934;15.554;2023-02-28T16:10:07;101157.36;;;1.95;52.33
59073;BME280;44859;51.934;15.554;2023-02-28T16:12:45;101154.72;;;1.90;52.42
59073;BME280;44859;51.934;15.554;2023-02-28T16:15:35;101154.36;;;1.88;52.65
59073;BME280;44859;51.934;15.554;2023-02-28T16:18:11;101155.89;;;1.84;52.70
59073;BME280;44859;51.934;15.554;2023-02-28T16:20:39;101159.98;;;1.79;52.85
59073;BME280;44859;51.934;15.554;2023-02-28T16:23:07;101161.46;;;1.70;53.24
59073;BME280;44859;51.934;15.554;2023-02-28T16:26:23;101158.02;;;1.54;53.69
59073;BME280;44859;51.934;15.554;2023-02-28T16:29:38;101160.73;;;1.49;54.04
59073;BME280;44859;51.934;15.554;2023-02-28T16:32:17;101165.38;;;1.46;54.39
59073;BME280;44859;51.934;15.554;2023-02-28T16:35:22;101170.65;;;1.36;54.49
59073;BME280;44859;51.934;15.554;2023-02-28T16:37:54;101171.47;;;1.18;55.01
59073;BME280;44859;51.934;15.554;2023-02-28T16:40:33;101172.63;;;0.98;55.47
59073;BME280;44859;51.934;15.554;2023-02-28T16:43:06;101175.14;;;0.79;55.81
59073;BME280;44859;51.934;15.554;2023-02-28T16:50:32;101180.88;;;0.44;57.11
59073;BME280;44859;51.934;15.554;2023-02-28T17:02:14;101191.67;;;-0.15;59.42
59073;BME280;44859;51.934;15.554;2023-02-28T17:05:14;101191.23;;;-0.30;60.08
59073;BME280;44859;51.934;15.554;2023-02-28T17:15:32;101199.89;;;-0.57;61.34
59073;BME280;44859;51.934;15.554;2023-02-28T17:18:58;101199.25;;;-0.62;61.74
59073;BME280;44859;51.934;15.554;2023-02-28T17:26:54;101198.88;;;-0.73;63.07
59073;BME280;44859;51.934;15.554;2023-02-28T17:34:10;101200.04;;;-0.76;62.98
59073;BME280;44859;51.934;15.554;2023-02-28T17:37:48;101202.02;;;-0.80;63.41
59073;BME280;44859;51.934;15.554;2023-02-28T17:42:08;101204.89;;;-0.83;63.70
59073;BME280;44859;51.934;15.554;2023-02-28T17:49:37;101200.89;;;-0.84;64.80
59073;BME280;44859;51.934;15.554;2023-02-28T17:53:11;101205.75;;;-0.91;64.74
59073;BME280;44859;51.934;15.554;2023-02-28T17:56:20;101205.08;;;-0.98;65.31
59073;BME280;44859;51.934;15.554;2023-02-28T17:59:01;101202.42;;;-1.02;65.41
59073;BME280;44859;51.934;15.554;2023-02-28T18:02:29;101202.59;;;-1.10;65.70
59073;BME280;44859;51.934;15.554;2023-02-28T18:05:04;101199.42;;;-1.14;65.97
59073;BME280;44859;51.934;15.554;2023-02-28T18:08:09;101199.89;;;-1.16;66.13
59073;BME280;44859;51.934;15.554;2023-02-28T18:10:55;101198.27;;;-1.20;66.40
59073;BME280;44859;51.934;15.554;2023-02-28T18:13:35;101203.26;;;-1.20;66.56
59073;BME280;44859;51.934;15.554;2023-02-28T18:16:55;101200.57;;;-1.16;66.63
59073;BME280;44859;51.934;15.554;2023-02-28T18:19:56;101197.38;;;-1.04;66.76
59073;BME280;44859;51.934;15.554;2023-02-28T18:23:14;101196.23;;;-0.85;67.02
59073;BME280;44859;51.934;15.554;2023-02-28T18:26:11;101197.88;;;-0.71;66.94
59073;BME280;44859;51.934;15.554;2023-02-28T18:29:03;101197.98;;;-0.65;66.92
59073;BME280;44859;51.934;15.554;2023-02-28T18:31:59;101200.84;;;-0.70;66.99
59073;BME280;44859;51.934;15.554;2023-02-28T18:38:15;101203.64;;;-0.93;67.24
59073;BME280;44859;51.934;15.554;2023-02-28T18:41:05;101201.02;;;-1.04;67.57
59073;BME280;44859;51.934;15.554;2023-02-28T18:44:09;101202.33;;;-1.15;67.82
59073;BME280;44859;51.934;15.554;2023-02-28T18:46:50;101201.11;;;-1.22;67.98
59073;BME280;44859;51.934;15.554;2023-02-28T18:49:33;101201.17;;;-1.28;68.19
59073;BME280;44859;51.934;15.554;2023-02-28T18:52:32;101193.77;;;-1.36;68.92
59073;BME280;44859;51.934;15.554;2023-02-28T19:23:30;101204.25;;;-2.09;71.43
59073;BME280;44859;51.934;15.554;2023-02-28T19:26:33;101206.71;;;-2.14;71.69